sensor_id;sensor_type;location;lat;lon;timestamp;pressure;altitude;pressure_sealevel;temperature;humidity
11041;BME280;5573;49.592;8.662;2023-03-21T00:01:49;100124.41;;;8.78;100.00
11041;BME280;5573;49.592;8.662;2023-03-21T00:04:18;100124.56;;;8.85;100.00
11041;BME280;5573;49.592;8.662;2023-03-21T00:06:45;100126.22;;;8.90;100.00
11041;BME280;5573;49.592;8.662;2023-03-21T00:09:13;100125.38;;;8.86;100.00
11041;BME280;5573;49.592;8.662;2023-03-21T00:11:41;100117.63;;;8.91;100.00
11041;BME280;5573;49.592;8.662;2023-03-21T00:14:09;100115.19;;;8.86;100.00
11041;BME280;5573;49.592;8.662;2023-03-21T00:16:40;100114.88;;;8.91;100.00
11041;BME280;5573;49.592;8.662;2023-03-21T00:19:12;100116.81;;;8.91;100.00
11041;BME280;5573;49.592;8.662;2023-03-21T00:21:41;100107.50;;;8.95;100.00
11041;BME280;5573;49.592;8.662;2023-03-21T00:24:29;100103.97;;;8.95;100.00
11041;BME280;5573;49.592;8.662;2023-03-21T00:26:57;100105.25;;;9.01;100.00
11041;BME280;5573;49.592;8.662;2023-03-21T00:29:46;100096.28;;;9.04;100.00
11041;BME280;5573;49.592;8.662;2023-03-21T00:32:17;100097.16;;;9.08;100.00
11041;BME280;5573;49.592;8.662;2023-03-21T00:34:47;100099.84;;;9.05;100.00
11041;BME280;5573;49.592;8.662;2023-03-21T00:37:36;100091.66;;;9.08;100.00
11041;BME280;5573;49.592;8.662;2023-03-21T00:40:04;100095.94;;;9.06;100.00
11041;BME280;5573;49.592;8.662;2023-03-21T00:42:45;100086.56;;;9.07;100.00
11041;BME280;5573;49.592;8.662;2023-03-21T00:45:12;100090.59;;;9.13;100.00
11041;BME280;5573;49.592;8.662;2023-03-21T00:47:41;100087.22;;;9.23;100.00
11041;BME280;5573;49.592;8.662;2023-03-21T00:50:12;100086.75;;;9.18;100.00
11041;BME280;5573;49.592;8.662;2023-03-21T00:52:40;100087.47;;;9.14;100.00
11041;BME280;5573;49.592;8.662;2023-03-21T00:55:11;100075.28;;;9.12;100.00
11041;BME280;5573;49.592;8.662;2023-03-21T00:57:39;100075.34;;;9.15;100.00
11041;BME280;5573;49.592;8.662;2023-03-21T01:00:14;100072.53;;;9.12;100.00
11041;BME280;5573;49.592;8.662;2023-03-21T01:02:43;100060.75;;;9.11;100.00
11041;BME280;5573;49.592;8.662;2023-03-21T01:05:35;100068.81;;;9.24;100.00
11041;BME280;5573;49.592;8.662;2023-03-21T01:08:21;100064.41;;;9.19;100.00
11041;BME280;5573;49.592;8.662;2023-03-21T01:11:02;100063.94;;;9.13;100.00
11041;BME280;5573;49.592;8.662;2023-03-21T01:13:31;100061.63;;;9.15;100.00
11041;BME280;5573;49.592;8.662;2023-03-21T01:16:03;100063.09;;;9.09;100.00
11041;BME280;5573;49.592;8.662;2023-03-21T01:18:33;100059.47;;;9.28;100.00
11041;BME280;5573;49.592;8.662;2023-03-21T01:21:05;100055.22;;;9.31;97.17
11041;BME280;5573;49.592;8.662;2023-03-21T01:23:34;100066.72;;;9.40;100.00
11041;BME280;5573;49.592;8.662;2023-03-21T01:26:02;100054.78;;;9.29;100.00
11041;BME280;5573;49.592;8.662;2023-03-21T01:28:30;100064.28;;;9.35;100.00
11041;BME280;5573;49.592;8.662;2023-03-21T01:31:00;99996.13;;;8.91;100.00
11041;BME280;5573;49.592;8.662;2023-03-21T01:33:29;100061.00;;;9.26;100.00
11041;BME280;5573;49.592;8.662;2023-03-21T01:35:57;100050.28;;;9.17;100.00
11041;BME280;5573;49.592;8.662;2023-03-21T01:38:40;100045.44;;;9.10;100.00
11041;BME280;5573;49.592;8.662;2023-03-21T01:41:24;100053.03;;;9.17;100.00
11041;BME280;5573;49.592;8.662;2023-03-21T01:44:14;100049.28;;;9.06;100.00
11041;BME280;5573;49.592;8.662;2023-03-21T01:46:44;100050.16;;;9.10;100.00
11041;BME280;5573;49.592;8.662;2023-03-21T01:49:46;100045.50;;;9.14;100.00
11041;BME280;5573;49.592;8.662;2023-03-21T01:52:20;100043.31;;;9.00;100.00
11041;BME280;5573;49.592;8.662;2023-03-21T01:55:08;100043.69;;;8.99;100.00
11041;BME280;5573;49.592;8.662;2023-03-21T01:57:57;100036.84;;;8.89;100.00
11041;BME280;5573;49.592;8.662;2023-03-21T02:00:46;100037.41;;;8.98;100.00
11041;BME280;5573;49.592;8.662;2023-03-21T02:03:26;100043.19;;;8.93;100.00
11041;BME280;5573;49.592;8.662;2023-03-21T02:06:29;100039.22;;;8.90;100.00
11041;BME280;5573;49.592;8.662;2023-03-21T02:09:11;100026.66;;;8.89;100.00
11041;BME280;5573;49.592;8.662;2023-03-21T02:11:42;100025.75;;;8.82;100.00
11041;BME280;5573;49.592;8.662;2023-03-21T02:14:15;100022.75;;;8.90;100.00
11041;BME280;5573;49.592;8.662;2023-03-21T02:17:04;100018.38;;;8.86;100.00
11041;BME280;5573;49.592;8.662;2023-03-21T02:23:06;100015.75;;;8.93;100.00
11041;BME280;5573;49.592;8.662;2023-03-21T02:28:46;99958.19;;;8.50;100.00
11041;BME280;5573;49.592;8.662;2023-03-21T02:31:26;100008.44;;;8.78;100.00
11041;BME280;5573;49.592;8.662;2023-03-21T02:34:24;100006.56;;;8.82;100.00
11041;BME280;5573;49.592;8.662;2023-03-21T02:37:09;100005.88;;;8.88;100.00
11041;BME280;5573;49.592;8.662;2023-03-21T02:39:52;100010.19;;;8.89;100.00
11041;BME280;5573;49.592;8.662;2023-03-21T02:42:26;100015.63;;;8.86;100.00
11041;BME280;5573;49.592;8.662;2023-03-21T02:45:00;100002.28;;;8.84;100.00
11041;BME280;5573;49.592;8.662;2023-03-21T02:47:34;99999.88;;;8.83;100.00
11041;BME280;5573;49.592;8.662;2023-03-21T02:50:09;99995.75;;;8.92;100.00
11041;BME280;5573;49.592;8.662;2023-03-21T02:52:41;100002.03;;;8.93;100.00
11041;BME280;5573;49.592;8.662;2023-03-21T02:55:14;100004.00;;;8.92;100.00
11041;BME280;5573;49.592;8.662;2023-03-21T02:58:00;100004.00;;;8.92;100.00
11041;BME280;5573;49.592;8.662;2023-03-21T03:00:44;100000.75;;;8.87;100.00
11041;BME280;5573;49.592;8.662;2023-03-21T03:03:21;100007.34;;;8.82;100.00
11041;BME280;5573;49.592;8.662;2023-03-21T03:06:02;100005.97;;;8.72;100.00
11041;BME280;5573;49.592;8.662;2023-03-21T03:08:40;100004.09;;;8.77;100.00
11041;BME280;5573;49.592;8.662;2023-03-21T03:11:28;100004.88;;;8.54;100.00
11041;BME280;5573;49.592;8.662;2023-03-21T03:14:10;99975.31;;;8.24;100.00
11041;BME280;5573;49.592;8.662;2023-03-21T03:17:13;99994.91;;;8.46;100.00
11041;BME280;5573;49.592;8.662;2023-03-21T03:19:53;99991.66;;;8.21;100.00
11041;BME280;5573;49.592;8.662;2023-03-21T03:22:42;99989.06;;;8.08;100.00
11041;BME280;5573;49.592;8.662;2023-03-21T03:25:17;99995.28;;;8.05;100.00
11041;BME280;5573;49.592;8.662;2023-03-21T03:28:06;99997.34;;;7.92;100.00
11041;BME280;5573;49.592;8.662;2023-03-21T03:30:36;99984.16;;;7.98;100.00
11041;BME280;5573;49.592;8.662;2023-03-21T03:33:15;99987.75;;;7.83;100.00
11041;BME280;5573;49.592;8.662;2023-03-21T03:35:49;99987.44;;;7.68;100.00
11041;BME280;5573;49.592;8.662;2023-03-21T03:38:33;99985.44;;;7.49;100.00
11041;BME280;5573;49.592;8.662;2023-03-21T03:41:08;99972.84;;;7.45;100.00
11041;BME280;5573;49.592;8.662;2023-03-21T03:43:53;99986.44;;;7.77;100.00
11041;BME280;5573;49.592;8.662;2023-03-21T03:46:29;99986.22;;;7.85;100.00
11041;BME280;5573;49.592;8.662;2023-03-21T03:49:03;99990.53;;;7.67;100.00
11041;BME280;5573;49.592;8.662;2023-03-21T03:51:37;99963.56;;;7.49;100.00
11041;BME280;5573;49.592;8.662;2023-03-21T03:54:21;99992.28;;;7.75;100.00
11041;BME280;5573;49.592;8.662;2023-03-21T03:56:53;99989.19;;;7.77;100.00
11041;BME280;5573;49.592;8.662;2023-03-21T03:59:21;99994.31;;;7.78;100.00
11041;BME280;5573;49.592;8.662;2023-03-21T04:02:16;99990.97;;;7.88;100.00
11041;BME280;5573;49.592;8.662;2023-03-21T04:04:47;99991.28;;;7.83;100.00
11041;BME280;5573;49.592;8.662;2023-03-21T04:07:18;99983.16;;;7.87;100.00
11041;BME280;5573;49.592;8.662;2023-03-21T04:09:48;99987.84;;;7.86;100.00
11041;BME280;5573;49.592;8.662;2023-03-21T04:12:20;99996.41;;;7.85;100.00
11041;BME280;5573;49.592;8.662;2023-03-21T04:15:06;99995.25;;;7.86;100.00
11041;BME280;5573;49.592;8.662;2023-03-21T04:17:41;99985.34;;;7.62;100.00
11041;BME280;5573;49.592;8.662;2023-03-21T04:20:11;99978.88;;;7.70;100.00
11041;BME280;5573;49.592;8.662;2023-03-21T04:22:56;99984.28;;;7.86;100.00
11041;BME280;5573;49.592;8.662;2023-03-21T04:25:24;99973.63;;;7.81;100.00
11041;BME280;5573;49.592;8.662;2023-03-21T04:28:02;99982.19;;;7.79;100.00
11041;BME280;5573;49.592;8.662;2023-03-21T04:30:50;99980.31;;;7.64;100.00
11041;BME280;5573;49.592;8.662;2023-03-21T04:33:39;99985.00;;;7.63;100.00
11041;BME280;5573;49.592;8.662;2023-03-21T04:36:09;99975.47;;;7.57;100.00
11041;BME280;5573;49.592;8.662;2023-03-21T04:38:55;99974.50;;;7.49;100.00
11041;BME280;5573;49.592;8.662;2023-03-21T04:41:27;99966.44;;;7.57;100.00
11041;BME280;5573;49.592;8.662;2023-03-21T04:43:57;99969.34;;;7.64;100.00
11041;BME280;5573;49.592;8.662;2023-03-21T04:46:24;99973.50;;;7.58;100.00
11041;BME280;5573;49.592;8.662;2023-03-21T04:48:53;99983.13;;;7.67;100.00
11041;BME280;5573;49.592;8.662;2023-03-21T04:51:21;99976.25;;;7.58;100.00
11041;BME280;5573;49.592;8.662;2023-03-21T04:53:49;99970.19;;;7.48;100.00
11041;BME280;5573;49.592;8.662;2023-03-21T04:56:18;99964.06;;;7.55;100.00
11041;BME280;5573;49.592;8.662;2023-03-21T04:58:45;99973.19;;;7.43;100.00
11041;BME280;5573;49.592;8.662;2023-03-21T05:01:14;99974.72;;;7.25;100.00
11041;BME280;5573;49.592;8.662;2023-03-21T05:03:46;99975.00;;;7.20;100.00
11041;BME280;5573;49.592;8.662;2023-03-21T05:06:14;99969.41;;;7.32;100.00
11041;BME280;5573;49.592;8.662;2023-03-21T05:08:42;99965.22;;;7.03;100.00
11041;BME280;5573;49.592;8.662;2023-03-21T05:11:11;99962.81;;;7.17;100.00
11041;BME280;5573;49.592;8.662;2023-03-21T05:13:39;99954.09;;;7.11;100.00
11041;BME280;5573;49.592;8.662;2023-03-21T05:16:07;99967.47;;;7.17;100.00
11041;BME280;5573;49.592;8.662;2023-03-21T05:18:37;99971.44;;;7.35;100.00
11041;BME280;5573;49.592;8.662;2023-03-21T05:21:11;99958.94;;;7.53;100.00
11041;BME280;5573;49.592;8.662;2023-03-21T05:23:45;99963.13;;;7.47;100.00
11041;BME280;5573;49.592;8.662;2023-03-21T05:26:21;99954.44;;;7.61;100.00
11041;BME280;5573;49.592;8.662;2023-03-21T05:29:09;99959.97;;;7.65;100.00
11041;BME280;5573;49.592;8.662;2023-03-21T05:31:37;99957.28;;;7.49;100.00
11041;BME280;5573;49.592;8.662;2023-03-21T05:34:11;99965.06;;;7.47;100.00
11041;BME280;5573;49.592;8.662;2023-03-21T05:36:39;99960.28;;;7.44;100.00
11041;BME280;5573;49.592;8.662;2023-03-21T05:39:09;99962.97;;;7.40;100.00
11041;BME280;5573;49.592;8.662;2023-03-21T05:41:41;99953.69;;;7.29;100.00
11041;BME280;5573;49.592;8.662;2023-03-21T05:44:09;99955.66;;;7.28;100.00
11041;BME280;5573;49.592;8.662;2023-03-21T05:46:38;99959.91;;;7.26;100.00
11041;BME280;5573;49.592;8.662;2023-03-21T05:49:06;99949.25;;;7.05;100.00
11041;BME280;5573;49.592;8.662;2023-03-21T05:51:35;99953.28;;;7.11;100.00
11041;BME280;5573;49.592;8.662;2023-03-21T05:54:03;99948.06;;;7.22;100.00
11041;BME280;5573;49.592;8.662;2023-03-21T05:56:32;99947.00;;;7.26;100.00
11041;BME280;5573;49.592;8.662;2023-03-21T05:59:03;99952.47;;;7.26;100.00
11041;BME280;5573;49.592;8.662;2023-03-21T06:01:36;99955.13;;;7.23;100.00
11041;BME280;5573;49.592;8.662;2023-03-21T06:04:09;99959.59;;;7.31;100.00
11041;BME280;5573;49.592;8.662;2023-03-21T06:06:39;99961.56;;;7.15;100.00
11041;BME280;5573;49.592;8.662;2023-03-21T06:09:07;99961.25;;;7.00;100.00
11041;BME280;5573;49.592;8.662;2023-03-21T06:11:45;99967.47;;;7.17;100.00
11041;BME280;5573;49.592;8.662;2023-03-21T06:14:33;99965.13;;;7.15;100.00
11041;BME280;5573;49.592;8.662;2023-03-21T06:17:13;99970.84;;;7.26;100.00
11041;BME280;5573;49.592;8.662;2023-03-21T06:19:49;99968.63;;;7.16;100.00
11041;BME280;5573;49.592;8.662;2023-03-21T06:22:29;99973.91;;;7.40;100.00
11041;BME280;5573;49.592;8.662;2023-03-21T06:24:56;99969.81;;;7.50;100.00
11041;BME280;5573;49.592;8.662;2023-03-21T06:27:25;99971.78;;;7.69;100.00
11041;BME280;5573;49.592;8.662;2023-03-21T06:29:54;99974.31;;;7.78;100.00
11041;BME280;5573;49.592;8.662;2023-03-21T06:32:23;99969.66;;;7.78;100.00
11041;BME280;5573;49.592;8.662;2023-03-21T06:34:56;99937.81;;;7.70;100.00
11041;BME280;5573;49.592;8.662;2023-03-21T06:37:24;99971.25;;;7.99;100.00
11041;BME280;5573;49.592;8.662;2023-03-21T06:39:54;99977.66;;;8.26;100.00
11041;BME280;5573;49.592;8.662;2023-03-21T06:42:24;99982.94;;;8.54;100.00
11041;BME280;5573;49.592;8.662;2023-03-21T06:44:57;99986.25;;;8.86;100.00
11041;BME280;5573;49.592;8.662;2023-03-21T06:47:25;99980.06;;;9.16;100.00
11041;BME280;5573;49.592;8.662;2023-03-21T06:49:54;99982.09;;;9.46;100.00
11041;BME280;5573;49.592;8.662;2023-03-21T06:52:22;99987.50;;;9.95;100.00
11041;BME280;5573;49.592;8.662;2023-03-21T06:54:52;99971.75;;;10.26;100.00
11041;BME280;5573;49.592;8.662;2023-03-21T06:57:21;99991.09;;;10.67;93.95
11041;BME280;5573;49.592;8.662;2023-03-21T06:59:49;99990.25;;;10.63;88.27
11041;BME280;5573;49.592;8.662;2023-03-21T07:02:19;99971.88;;;10.74;89.09
11041;BME280;5573;49.592;8.662;2023-03-21T07:05:05;99986.28;;;11.02;85.36
11041;BME280;5573;49.592;8.662;2023-03-21T07:07:35;99991.19;;;11.23;85.94
11041;BME280;5573;49.592;8.662;2023-03-21T07:10:03;99989.41;;;11.48;85.91
11041;BME280;5573;49.592;8.662;2023-03-21T07:12:42;99992.31;;;11.73;79.35
11041;BME280;5573;49.592;8.662;2023-03-21T07:15:15;99993.69;;;12.05;78.65
11041;BME280;5573;49.592;8.662;2023-03-21T07:17:44;99991.81;;;12.23;75.46
11041;BME280;5573;49.592;8.662;2023-03-21T07:20:12;99997.72;;;12.25;73.15
11041;BME280;5573;49.592;8.662;2023-03-21T07:22:40;99996.19;;;12.38;73.05
11041;BME280;5573;49.592;8.662;2023-03-21T07:25:08;99992.69;;;12.52;71.31
11041;BME280;5573;49.592;8.662;2023-03-21T07:27:38;99995.47;;;12.70;71.22
11041;BME280;5573;49.592;8.662;2023-03-21T07:30:10;99978.44;;;12.36;71.83
11041;BME280;5573;49.592;8.662;2023-03-21T07:32:38;99989.91;;;12.49;75.92
11041;BME280;5573;49.592;8.662;2023-03-21T07:35:07;99986.00;;;12.68;73.25
11041;BME280;5573;49.592;8.662;2023-03-21T07:37:35;99980.09;;;12.94;69.98
11041;BME280;5573;49.592;8.662;2023-03-21T07:40:05;99977.34;;;12.84;71.04
11041;BME280;5573;49.592;8.662;2023-03-21T07:42:37;99984.06;;;12.97;71.84
11041;BME280;5573;49.592;8.662;2023-03-21T07:45:09;99902.00;;;12.29;70.56
11041;BME280;5573;49.592;8.662;2023-03-21T07:47:40;99985.66;;;12.91;71.98
11041;BME280;5573;49.592;8.662;2023-03-21T07:50:09;99985.63;;;12.69;70.41
11041;BME280;5573;49.592;8.662;2023-03-21T07:52:37;99983.63;;;12.66;74.44
11041;BME280;5573;49.592;8.662;2023-03-21T07:55:05;99990.34;;;12.69;72.83
11041;BME280;5573;49.592;8.662;2023-03-21T07:57:33;99988.34;;;12.62;71.84
11041;BME280;5573;49.592;8.662;2023-03-21T08:00:01;100000.16;;;12.52;72.40
11041;BME280;5573;49.592;8.662;2023-03-21T08:02:39;99993.50;;;12.81;74.75
11041;BME280;5573;49.592;8.662;2023-03-21T08:05:07;99997.47;;;12.73;73.92
11041;BME280;5573;49.592;8.662;2023-03-21T08:07:36;99999.81;;;12.78;71.77
11041;BME280;5573;49.592;8.662;2023-03-21T08:10:05;99999.81;;;12.78;72.12
11041;BME280;5573;49.592;8.662;2023-03-21T08:12:33;99996.25;;;12.81;71.54
11041;BME280;5573;49.592;8.662;2023-03-21T08:15:01;100000.63;;;12.90;71.19
11041;BME280;5573;49.592;8.662;2023-03-21T08:17:29;100001.41;;;13.15;71.49
11041;BME280;5573;49.592;8.662;2023-03-21T08:19:58;99997.09;;;13.14;72.68
11041;BME280;5573;49.592;8.662;2023-03-21T08:22:26;99992.75;;;13.28;69.01
11041;BME280;5573;49.592;8.662;2023-03-21T08:24:53;99993.53;;;13.64;69.63
11041;BME280;5573;49.592;8.662;2023-03-21T08:27:21;99984.84;;;13.51;66.85
11041;BME280;5573;49.592;8.662;2023-03-21T08:29:49;99988.75;;;13.72;66.30
11041;BME280;5573;49.592;8.662;2023-03-21T08:32:17;99978.88;;;13.74;66.73
11041;BME280;5573;49.592;8.662;2023-03-21T08:34:45;99980.81;;;13.85;66.19
11041;BME280;5573;49.592;8.662;2023-03-21T08:37:14;99984.66;;;14.23;63.74
11041;BME280;5573;49.592;8.662;2023-03-21T08:39:42;99960.78;;;14.51;62.52
11041;BME280;5573;49.592;8.662;2023-03-21T08:42:09;99981.13;;;14.93;62.27
11041;BME280;5573;49.592;8.662;2023-03-21T08:44:37;99991.03;;;14.87;61.21
11041;BME280;5573;49.592;8.662;2023-03-21T08:47:06;99985.81;;;14.99;58.72
11041;BME280;5573;49.592;8.662;2023-03-21T08:49:35;99957.63;;;14.49;60.54
11041;BME280;5573;49.592;8.662;2023-03-21T08:52:02;99989.72;;;15.06;58.92
11041;BME280;5573;49.592;8.662;2023-03-21T08:54:32;99966.63;;;14.67;58.84
11041;BME280;5573;49.592;8.662;2023-03-21T08:57:00;99995.81;;;14.82;59.37
11041;BME280;5573;49.592;8.662;2023-03-21T08:59:28;99987.22;;;14.62;61.88
11041;BME280;5573;49.592;8.662;2023-03-21T09:01:56;99986.06;;;14.60;61.58
11041;BME280;5573;49.592;8.662;2023-03-21T09:04:24;99982.94;;;14.47;62.36
11041;BME280;5573;49.592;8.662;2023-03-21T09:06:52;99968.84;;;14.20;61.11
11041;BME280;5573;49.592;8.662;2023-03-21T09:09:21;99980.25;;;14.29;62.08
11041;BME280;5573;49.592;8.662;2023-03-21T09:11:50;99976.66;;;14.39;62.69
11041;BME280;5573;49.592;8.662;2023-03-21T09:14:18;99979.78;;;14.45;60.81
11041;BME280;5573;49.592;8.662;2023-03-21T09:16:53;99980.47;;;14.67;61.26
11041;BME280;5573;49.592;8.662;2023-03-21T09:19:21;99988.94;;;14.38;62.31
11041;BME280;5573;49.592;8.662;2023-03-21T09:21:49;99982.38;;;14.77;61.43
11041;BME280;5573;49.592;8.662;2023-03-21T09:24:18;99980.44;;;14.78;61.71
11041;BME280;5573;49.592;8.662;2023-03-21T09:26:47;99978.16;;;14.55;61.37
11041;BME280;5573;49.592;8.662;2023-03-21T09:29:18;99976.59;;;14.50;61.54
11041;BME280;5573;49.592;8.662;2023-03-21T09:31:46;99973.78;;;14.64;61.91
11041;BME280;5573;49.592;8.662;2023-03-21T09:34:15;99970.97;;;14.68;62.18
11041;BME280;5573;49.592;8.662;2023-03-21T09:36:43;99981.34;;;14.57;61.99
11041;BME280;5573;49.592;8.662;2023-03-21T09:39:13;99981.00;;;14.40;61.13
11041;BME280;5573;49.592;8.662;2023-03-21T09:41:56;99978.06;;;14.76;61.02
11041;BME280;5573;49.592;8.662;2023-03-21T09:44:40;99978.34;;;14.89;60.72
11041;BME280;5573;49.592;8.662;2023-03-21T09:47:14;99985.16;;;14.77;60.86
11041;BME280;5573;49.592;8.662;2023-03-21T09:49:48;99981.22;;;14.78;60.54
11041;BME280;5573;49.592;8.662;2023-03-21T09:52:27;99985.75;;;15.03;60.84
11041;BME280;5573;49.592;8.662;2023-03-21T09:54:57;99975.50;;;15.00;60.19
11041;BME280;5573;49.592;8.662;2023-03-21T09:57:30;99977.56;;;14.89;60.79
11041;BME280;5573;49.592;8.662;2023-03-21T10:00:04;99982.00;;;14.75;60.99
11041;BME280;5573;49.592;8.662;2023-03-21T10:02:38;99980.84;;;14.69;62.99
11041;BME280;5573;49.592;8.662;2023-03-21T10:05:14;99985.28;;;14.59;62.19
11041;BME280;5573;49.592;8.662;2023-03-21T10:07:45;99975.66;;;14.78;62.45
11041;BME280;5573;49.592;8.662;2023-03-21T10:10:18;99981.88;;;14.97;61.89
11041;BME280;5573;49.592;8.662;2023-03-21T10:12:47;99984.25;;;14.95;60.86
11041;BME280;5573;49.592;8.662;2023-03-21T10:15:20;99962.88;;;14.99;60.52
11041;BME280;5573;49.592;8.662;2023-03-21T10:17:56;99978.47;;;15.23;59.96
11041;BME280;5573;49.592;8.662;2023-03-21T10:20:29;99986.13;;;15.05;58.97
11041;BME280;5573;49.592;8.662;2023-03-21T10:22:59;99976.34;;;14.97;59.88
11041;BME280;5573;49.592;8.662;2023-03-21T10:25:32;99981.44;;;14.98;59.79
11041;BME280;5573;49.592;8.662;2023-03-21T10:28:01;99976.34;;;14.97;59.57
11041;BME280;5573;49.592;8.662;2023-03-21T10:30:40;99981.91;;;14.90;59.32
11041;BME280;5573;49.592;8.662;2023-03-21T10:33:13;99966.06;;;14.90;60.58
11041;BME280;5573;49.592;8.662;2023-03-21T10:35:44;99973.00;;;14.64;60.68
11041;BME280;5573;49.592;8.662;2023-03-21T10:38:15;99943.72;;;14.63;60.01
11041;BME280;5573;49.592;8.662;2023-03-21T10:40:44;99961.88;;;15.20;60.29
11041;BME280;5573;49.592;8.662;2023-03-21T10:43:18;99970.88;;;15.35;58.64
11041;BME280;5573;49.592;8.662;2023-03-21T10:45:48;99959.72;;;14.97;60.64
11041;BME280;5573;49.592;8.662;2023-03-21T10:48:16;99952.84;;;15.12;60.30
11041;BME280;5573;49.592;8.662;2023-03-21T10:50:46;99954.63;;;15.37;59.40
11041;BME280;5573;49.592;8.662;2023-03-21T10:53:18;99956.81;;;15.53;59.01
11041;BME280;5573;49.592;8.662;2023-03-21T10:55:49;99944.75;;;14.87;60.97
11041;BME280;5573;49.592;8.662;2023-03-21T10:58:21;99939.09;;;15.01;62.16
11041;BME280;5573;49.592;8.662;2023-03-21T11:00:56;99952.59;;;14.96;59.90
11041;BME280;5573;49.592;8.662;2023-03-21T11:03:27;99946.81;;;15.24;61.84
11041;BME280;5573;49.592;8.662;2023-03-21T11:06:00;99942.38;;;14.82;65.79
11041;BME280;5573;49.592;8.662;2023-03-21T11:08:29;99946.38;;;14.81;65.31
11041;BME280;5573;49.592;8.662;2023-03-21T11:11:01;99950.97;;;14.98;68.94
11041;BME280;5573;49.592;8.662;2023-03-21T11:13:33;99946.94;;;15.10;68.78
11041;BME280;5573;49.592;8.662;2023-03-21T11:16:07;99940.94;;;14.67;67.09
11041;BME280;5573;49.592;8.662;2023-03-21T11:18:40;99945.69;;;14.62;68.11
11041;BME280;5573;49.592;8.662;2023-03-21T11:21:11;99952.41;;;14.65;71.64
11041;BME280;5573;49.592;8.662;2023-03-21T11:23:41;99944.91;;;14.66;67.40
11041;BME280;5573;49.592;8.662;2023-03-21T11:26:18;99944.81;;;14.80;69.18
11041;BME280;5573;49.592;8.662;2023-03-21T11:28:49;99940.13;;;14.70;68.90
11041;BME280;5573;49.592;8.662;2023-03-21T11:31:19;99943.22;;;14.79;66.06
11041;BME280;5573;49.592;8.662;2023-03-21T11:33:52;99932.00;;;14.97;62.42
11041;BME280;5573;49.592;8.662;2023-03-21T11:36:32;99929.66;;;14.92;64.98
11041;BME280;5573;49.592;8.662;2023-03-21T11:39:11;99929.78;;;14.77;65.97
11041;BME280;5573;49.592;8.662;2023-03-21T11:41:41;99935.00;;;14.64;69.48
11041;BME280;5573;49.592;8.662;2023-03-21T11:44:28;99930.22;;;14.69;65.97
11041;BME280;5573;49.592;8.662;2023-03-21T11:46:57;99922.22;;;14.85;67.59
11041;BME280;5573;49.592;8.662;2023-03-21T11:49:26;99928.53;;;14.86;71.13
11041;BME280;5573;49.592;8.662;2023-03-21T11:52:02;99927.38;;;14.83;68.02
11041;BME280;5573;49.592;8.662;2023-03-21T11:54:47;99915.28;;;14.52;67.97
11041;BME280;5573;49.592;8.662;2023-03-21T11:57:22;99917.13;;;14.76;66.88
11041;BME280;5573;49.592;8.662;2023-03-21T12:00:00;99915.59;;;14.72;63.35
11041;BME280;5573;49.592;8.662;2023-03-21T12:05:34;99901.28;;;14.21;66.66
11041;BME280;5573;49.592;8.662;2023-03-21T12:08:12;99902.56;;;13.98;67.79
11041;BME280;5573;49.592;8.662;2023-03-21T12:10:47;99891.78;;;14.22;68.75
11041;BME280;5573;49.592;8.662;2023-03-21T12:13:29;99886.59;;;14.28;71.19
11041;BME280;5573;49.592;8.662;2023-03-21T12:16:09;99877.94;;;14.22;70.17
11041;BME280;5573;49.592;8.662;2023-03-21T12:18:58;99870.03;;;14.24;66.97
11041;BME280;5573;49.592;8.662;2023-03-21T12:21:32;99874.19;;;14.50;65.00
11041;BME280;5573;49.592;8.662;2023-03-21T12:24:05;99861.66;;;14.87;66.68
11041;BME280;5573;49.592;8.662;2023-03-21T12:26:39;99859.72;;;15.22;66.87
11041;BME280;5573;49.592;8.662;2023-03-21T12:32:09;99862.53;;;15.87;61.07
11041;BME280;5573;49.592;8.662;2023-03-21T12:34:55;99863.34;;;16.15;62.22
11041;BME280;5573;49.592;8.662;2023-03-21T12:37:30;99864.25;;;16.08;61.59
11041;BME280;5573;49.592;8.662;2023-03-21T12:40:06;99864.00;;;15.99;60.60
11041;BME280;5573;49.592;8.662;2023-03-21T12:42:50;99856.22;;;16.17;57.32
11041;BME280;5573;49.592;8.662;2023-03-21T12:45:24;99849.47;;;16.15;59.20
11041;BME280;5573;49.592;8.662;2023-03-21T12:48:16;99840.00;;;16.12;57.66
11041;BME280;5573;49.592;8.662;2023-03-21T12:50:50;99834.25;;;15.99;59.42
11041;BME280;5573;49.592;8.662;2023-03-21T12:53:30;99835.25;;;15.85;56.84
11041;BME280;5573;49.592;8.662;2023-03-21T12:56:06;99832.03;;;15.87;59.88
11041;BME280;5573;49.592;8.662;2023-03-21T12:58:43;99829.59;;;15.93;55.57
11041;BME280;5573;49.592;8.662;2023-03-21T13:01:14;99836.75;;;15.90;56.10
11041;BME280;5573;49.592;8.662;2023-03-21T13:03:46;99831.22;;;15.90;58.90
11041;BME280;5573;49.592;8.662;2023-03-21T13:06:19;99835.13;;;15.93;58.50
11041;BME280;5573;49.592;8.662;2023-03-21T13:08:52;99828.88;;;15.85;57.88
11041;BME280;5573;49.592;8.662;2023-03-21T13:11:25;99822.41;;;15.95;54.06
11041;BME280;5573;49.592;8.662;2023-03-21T13:13:57;99815.69;;;15.96;56.47
11041;BME280;5573;49.592;8.662;2023-03-21T13:16:29;99810.53;;;15.95;56.95
11041;BME280;5573;49.592;8.662;2023-03-21T13:19:07;99812.84;;;15.73;56.81
11041;BME280;5573;49.592;8.662;2023-03-21T13:21:49;99809.91;;;15.83;55.67
11041;BME280;5573;49.592;8.662;2023-03-21T13:24:23;99801.00;;;15.34;55.62
11041;BME280;5573;49.592;8.662;2023-03-21T13:26:56;99804.34;;;15.18;55.75
11041;BME280;5573;49.592;8.662;2023-03-21T13:29:29;99803.16;;;15.54;56.45
11041;BME280;5573;49.592;8.662;2023-03-21T13:32:06;99801.88;;;15.28;57.65
11041;BME280;5573;49.592;8.662;2023-03-21T13:34:37;99794.06;;;15.19;56.74
11041;BME280;5573;49.592;8.662;2023-03-21T13:37:12;99786.09;;;15.24;56.96
11041;BME280;5573;49.592;8.662;2023-03-21T13:39:43;99789.03;;;15.07;57.96
11041;BME280;5573;49.592;8.662;2023-03-21T13:42:19;99794.47;;;15.17;56.15
11041;BME280;5573;49.592;8.662;2023-03-21T13:44:52;99790.03;;;15.23;57.07
11041;BME280;5573;49.592;8.662;2023-03-21T13:47:30;99791.03;;;15.06;56.69
11041;BME280;5573;49.592;8.662;2023-03-21T13:50:20;99787.66;;;15.22;56.65
11041;BME280;5573;49.592;8.662;2023-03-21T13:56:23;99778.84;;;14.96;56.51
11041;BME280;5573;49.592;8.662;2023-03-21T13:58:58;99769.53;;;14.79;62.43